• Join FlightAware (Why Join?)
  • Login
  • US Flag 
12:29AM EST


 

Airport Tracker/Info


-or-


 

Live Flight TrackerFlight Track Log ✈ N406TM ✈ 16-Feb-2014 ✈ MTPP / PAP - TNCM / SXM

Flight Track Log - Related Links

Times and Time Zones

All times are in EST time to prevent confusion due to time zone crossing. See the N406TM flight status page for this flight to view local times or setup timezone preferences in your user account.

Time Position Orientation Groundspeed Altitude Reporting Facility
EST Latitude Longitude Course Direction KTS MPH feet Rate Location/Type
06:05PM 18.4785 -71.0901 95° East  Level FlightAware Approximate
06:06PM 18.4690 -70.9815 95° East  Level FlightAware Approximate
06:07PM 18.4594 -70.8730 95° East  Level FlightAware Approximate
06:08PM 18.4497 -70.7644 95° East  Level FlightAware Approximate
06:09PM 18.4400 -70.6559 95° East  Level FlightAware Approximate
06:10PM 18.4302 -70.5473 95° East  Level FlightAware Approximate
06:11PM 18.4203 -70.4388 95° East  Level FlightAware Approximate
06:12PM 18.4104 -70.3303 95° East  Level FlightAware Approximate
06:13PM 18.4004 -70.2218 96° East  Level FlightAware Approximate
06:14PM 18.3904 -70.1133 96° East  Level FlightAware Approximate
06:15PM 18.3803 -70.0049 96° East  Level FlightAware Approximate
06:16PM 18.3701 -69.8964 96° East  Level FlightAware Approximate
06:17PM 18.3599 -69.7880 96° East  Level FlightAware Approximate
06:18PM 18.3496 -69.6795 96° East  Level FlightAware Approximate
06:19PM 18.3403 -69.5773 95° East  Level FlightAware Approximate
06:20PM 18.3303 -69.4688 96° East  Level FlightAware Approximate
06:21PM 18.3202 -69.3604 96° East  Level FlightAware Approximate
06:22PM 18.3101 -69.2520 96° East  Level FlightAware Approximate
06:23PM 18.2999 -69.1436 96° East  Level FlightAware Approximate
06:24PM 18.2897 -69.0352 96° East  Level FlightAware Approximate
06:25PM 18.2794 -68.9268 96° East  Level FlightAware Approximate
06:26PM 18.2690 -68.8184 96° East  Level FlightAware Approximate
06:27PM 18.2586 -68.7101 96° East  Level FlightAware Approximate
06:28PM 18.2481 -68.6017 96° East  Level FlightAware Approximate
06:29PM 18.2376 -68.4934 96° East  Level FlightAware Approximate
06:30PM 18.2286 -68.3849 94° East  Level FlightAware Approximate
06:31PM 18.2206 -68.2764 94° East  Level FlightAware Approximate
06:32PM 18.2126 -68.1678 94° East  Level FlightAware Approximate
06:33PM 18.2045 -68.0593 94° East  Level FlightAware Approximate
06:34PM 18.1833 -67.9549 90° East  Level FlightAware Approximate
06:35PM 18.1786 -67.8462 93° East  Level FlightAware Approximate
06:35PM 18.2167 -68.2500 93° East 510 587 41,000  Level San Juan Center
06:36PM 18.1737 -67.7374 93° East  Level FlightAware Approximate
06:36PM 18.2167 -68.1500 90° East 490 564 41,000  Level San Juan Center
06:37PM 18.1687 -67.6287 93° East  Level FlightAware Approximate
06:37PM 18.2000 -67.9667 95° East 490 564 41,000  Level San Juan Center
06:38PM 18.1636 -67.5200 93° East  Level FlightAware Approximate
06:38PM 18.2000 -67.8333 90° East 490 564 41,000  Level San Juan Center
06:39PM 18.1584 -67.4112 93° East  Level FlightAware Approximate
06:39PM 18.1833 -67.6833 97° East 490 564 41,000  Level San Juan Center
06:40PM 18.1532 -67.3025 93° East  Level FlightAware Approximate
06:41PM 18.1480 -67.1938 93° East  Level FlightAware Approximate
06:41PM 18.1833 -67.5500 90° East 480 552 41,000  Level San Juan Center
06:42PM 18.1833 -67.4000 90° East 490 564 41,000  Level San Juan Center
06:43PM 18.1667 -67.2667 97° East 480 552 41,000  Level San Juan Center
06:44PM 18.1500 -67.1167 97° East 480 552 41,000  Level San Juan Center
06:45PM 18.1500 -67.0167 90° East 480 552 41,000  Level San Juan Center
06:46PM 18.1500 -66.8667 90° East 490 564 41,000  Level San Juan Center
06:47PM 18.1333 -66.7000 96° East 490 564 41,000  Level San Juan Center
06:48PM 18.1333 -66.5667 90° East 480 552 41,000  Level San Juan Center
06:49PM 18.1167 -66.4167 97° East 480 552 41,000  Level San Juan Center
06:50PM 18.1000 -66.2833 97° East 490 564 41,000  Level San Juan Center
06:51PM 18.1000 -66.1333 90° East 480 552 41,000  Level San Juan Center
06:52PM 18.0833 -65.9833 97° East 480 552 41,000  Level San Juan Center
06:53PM 18.0833 -65.8500 90° East 480 552 41,000  Level San Juan Center
06:54PM 18.0667 -65.7000 97° East 480 552 41,000  Level San Juan Center
06:55PM 18.0667 -65.5667 90° East 480 552 41,000  Level San Juan Center
06:56PM 18.0500 -65.4333 97° East 470 541 41,000  Level San Juan Center
06:57PM 18.0333 -65.2833 97° East 480 552 41,000  Level San Juan Center
06:58PM 18.0333 -65.1500 90° East 490 564 41,000  Level San Juan Center
06:59PM 18.0167 -65.0167 97° East 490 564 41,000  Level San Juan Center
07:00PM 18.0167 -64.8667 90° East 490 564 41,000 -100 Level San Juan Center
07:01PM 18.0000 -64.7333 97° East 480 552 40,800 -1,750 Descending San Juan Center
07:02PM 17.9833 -64.5833 97° East 480 552 37,500 -3,550 Descending San Juan Center
07:03PM 17.9833 -64.4333 90° East 490 564 33,700 -3,719 Descending San Juan Center
07:04PM 17.9667 -64.3000 97° East 490 564 30,000 -3,421 Descending San Juan Center
07:05PM 17.9667 -64.1667 90° East 470 541 26,800 -3,250 Descending San Juan Center
07:06PM 17.9500 -64.0333 97° East 440 506 23,500 -3,150 Descending San Juan Center
07:07PM 17.9500 -63.9167 90° East 390 449 20,500 -2,750 Descending San Juan Center
07:08PM 17.9333 -63.8167 100° East 340 391 18,000 -2,400 Descending San Juan Center
07:09PM 17.9333 -63.7333 90° East 300 345 15,700 -2,300 Descending San Juan Center